CMB820 Details

Departure: Joint Base McGuire Dix Lakehurst (KWRI)
Arrival: Patrick Air Force Base (KCOF) at N/A
Route: CYN226011 ACY V229 LEEAH V1 ISO J121 MILIE J103 OMN BITHO7
Notes: USTRANSCOM CONTRACT FLIGHT


Current Weather Information
KWRI 230656Z AUTO 28006KT 10SM OVC060 16/15 A2979 RMK AO2 SLP087 T01550149
KCOF 230656Z AUTO 32006KT 10SM CLR 26/26 A2999 RMK AO2 SLP160 T02550255 TSNO $